Flint, MI (48502)

6:49 PM EDT on May 04, 2015 (GMT -0400)
MesoWest | | Change Station
CLOSE
Current Station
Personal Weather Station
Location: Flint, MI
Elevation: 750 ft
Nearby Weather Stations

Elev 750 ft 43.02 °N, 83.67 °W | Updated 49 minutes ago

Mostly Cloudy
Mostly Cloudy
74 °F
Feels Like 77 °F
N
5
Wind Variable Wind from North
Gusts 0.0 mph

Today
High -- | Low -- °F
--% Chance of Precip.
Yesterday
High -- | Low -- °F
Precip. -- in
6:24 AM 8:38 PM
Full, 99% visible
Pressure 30.09 in
Visibility 10.0 miles
Clouds Scattered Clouds 4100 ft
Mostly Cloudy 5000 ft
Mostly Cloudy 7000 ft
Heat Index 77 °F
Dew Point 55 °F
Humidity 52%
Rainfall in
Snow Depth Not available.
UV 2 out of 12
Pollen 8.60 out of 12
Air Quality Not available.
Flu Activity Regional
METAR KFNT 042153Z 27011G14KT 10SM SCT041 BKN050 BKN070 24/14 A3010 RMK AO2 SLP188 T02440139

More Conditions Fewer Conditions

Pressure 30.09 in
Visibility 10.0 miles
Clouds Scattered Clouds 4100 ft
Mostly Cloudy 5000 ft
Mostly Cloudy 7000 ft
Heat Index 77 °F
Dew Point 55 °F
Humidity 52%
Rainfall in
Snow Depth Not available.
UV 2 out of 12
Pollen 8.60 out of 12
Air Quality Not available.
Flu Activity Regional
METAR KFNT 042153Z 27011G14KT 10SM SCT041 BKN050 BKN070 24/14 A3010 RMK AO2 SLP188 T02440139

More Conditions Fewer Conditions

Nepal has a long way to go to dig out and rebuild from a devastating earthquake. We have teamed up with several charities and organizations to make contributing to the relief effort as easy as possible.
How you can help: Portlight Strategies | Red Cross

10-Day Weather Forecast

Almanac

Astronomy

May. 04, 2015 Rise Set
Actual Time
Civil Twilight
Nautical Twilight
Astronomical Twilight
Moon
Length of Visible Light
Length of Day
Tomorrow will be .
, % of the Moon is Illuminated

Today's Extremes

State Highs State Lows

Community

WunderPhotos

Upload Photos

1,818,720 photos uploaded!

WunderBlogs® & News

Nearby

Air Quality

  Air Quality AQ Index Pollutant
Not available.

Snow Depth

Station Depth Elevation

Earthquake Activity

City Distance Mag. Time & Date
Minimum magnitude displayed is 2.5.

Coastal Water Temperatures

Place Temperature

Stations

Nearby Weather Stations

Station Location Temp. Windchill Dew Point Humidity Wind Precip. Elev Updated Type